createdAt,value
2019-03-17T00:01:29.446Z,3.27
2019-03-17T00:04:30.709Z,2.08
2019-03-17T00:07:11.466Z,2.02
2019-03-17T00:10:11.943Z,1.85
2019-03-17T00:13:05.012Z,3.05
2019-03-17T00:15:57.799Z,2.47
2019-03-17T00:18:51.630Z,2.15
2019-03-17T00:21:44.681Z,2.15
2019-03-17T00:24:38.004Z,2.22
2019-03-17T00:27:31.049Z,2.30
2019-03-17T00:30:24.871Z,2.92
2019-03-17T00:33:17.930Z,2.25
2019-03-17T00:36:10.728Z,1.55
2019-03-17T00:39:03.527Z,1.95
2019-03-17T00:41:56.582Z,2.33
2019-03-17T00:44:49.684Z,2.62
2019-03-17T00:47:42.696Z,2.10
2019-03-17T00:50:35.497Z,2.58
2019-03-17T00:53:28.551Z,2.22
2019-03-17T00:56:17.734Z,1.57
2019-03-17T00:59:10.825Z,2.47
2019-03-17T01:02:03.880Z,1.87
2019-03-17T01:04:56.742Z,1.62
2019-03-17T01:07:49.735Z,2.08
2019-03-17T01:10:42.536Z,2.05
2019-03-17T01:13:35.596Z,2.58
2019-03-17T01:16:28.658Z,2.60
2019-03-17T01:19:21.704Z,2.30
2019-03-17T01:22:14.518Z,2.60
2019-03-17T01:25:07.558Z,2.50
2019-03-17T01:28:00.616Z,2.50
2019-03-17T01:31:01.096Z,2.05
2019-03-17T01:33:50.344Z,2.42
2019-03-17T01:36:43.368Z,2.40
2019-03-17T01:39:36.942Z,2.08
2019-03-17T01:42:30.251Z,3.35
2019-03-17T01:45:23.048Z,1.98
2019-03-17T01:48:16.102Z,2.58
2019-03-17T01:51:05.447Z,2.77
2019-03-17T01:53:58.378Z,2.50
2019-03-17T01:56:52.198Z,2.05
2019-03-17T01:59:45.009Z,1.72
2019-03-17T02:02:39.082Z,2.20
2019-03-17T02:05:31.884Z,2.92
2019-03-17T02:08:25.959Z,2.55
2019-03-17T02:11:18.764Z,1.60
2019-03-17T02:14:07.946Z,2.25
2019-03-17T02:17:00.775Z,1.80
2019-03-17T02:19:53.858Z,2.42
2019-03-17T02:22:46.630Z,2.90
2019-03-17T02:25:39.435Z,2.60
2019-03-17T02:28:32.258Z,2.50
2019-03-17T02:31:25.039Z,2.40
2019-03-17T02:34:17.831Z,2.22
2019-03-17T02:37:10.632Z,3.70
2019-03-17T02:40:03.689Z,2.47
2019-03-17T02:42:56.741Z,2.22
2019-03-17T02:45:49.543Z,2.58
2019-03-17T02:48:42.600Z,3.02
2019-03-17T02:51:35.415Z,2.52
2019-03-17T02:54:29.225Z,2.05
2019-03-17T02:57:22.028Z,2.00
2019-03-17T03:00:11.043Z,2.83
2019-03-17T03:03:03.784Z,1.32
2019-03-17T03:05:56.597Z,2.05
2019-03-17T03:08:49.399Z,2.35
2019-03-17T03:11:42.315Z,2.62
2019-03-17T03:14:31.561Z,2.20
2019-03-17T03:17:24.458Z,1.95
2019-03-17T03:20:17.256Z,1.67
2019-03-17T03:23:10.337Z,2.45
2019-03-17T03:26:03.112Z,2.35
2019-03-17T03:28:56.175Z,2.35
2019-03-17T03:31:50.533Z,2.35
2019-03-17T03:34:43.571Z,2.55
2019-03-17T03:37:36.615Z,2.50
2019-03-17T03:40:29.673Z,2.05
2019-03-17T03:43:22.470Z,2.10
2019-03-17T03:46:15.533Z,2.05
2019-03-17T03:49:08.329Z,1.95
2019-03-17T03:52:01.382Z,2.67
2019-03-17T03:54:54.696Z,1.87
2019-03-17T03:57:48.776Z,1.82
2019-03-17T04:00:37.996Z,1.57
2019-03-17T04:03:43.856Z,2.27
2019-03-17T04:06:36.655Z,2.10
2019-03-17T04:09:29.960Z,1.85
2019-03-17T04:12:22.762Z,1.77
2019-03-17T04:15:08.080Z,1.82
2019-03-17T04:18:01.201Z,2.45
2019-03-17T04:20:54.248Z,1.95
2019-03-17T04:23:47.048Z,1.55
2019-03-17T04:26:39.851Z,1.70
2019-03-17T04:29:30.086Z,1.90
2019-03-17T04:32:24.168Z,2.35
2019-03-17T04:35:13.127Z,1.95
2019-03-17T04:38:10.024Z,1.62
2019-03-17T04:41:02.828Z,1.60
2019-03-17T04:43:55.628Z,1.50
2019-03-17T04:46:48.424Z,1.32
2019-03-17T04:49:41.222Z,0.90
2019-03-17T04:52:30.184Z,1.20
2019-03-17T04:55:22.987Z,1.12
2019-03-17T04:58:16.039Z,0.95
2019-03-17T05:01:08.843Z,0.82
2019-03-17T05:04:01.639Z,0.70
2019-03-17T05:06:54.697Z,0.50
2019-03-17T05:09:47.494Z,0.60
2019-03-17T05:12:40.551Z,0.50
2019-03-17T05:15:33.352Z,0.55
2019-03-17T05:18:26.412Z,0.72
2019-03-17T05:21:19.208Z,0.57
2019-03-17T05:24:12.519Z,0.50
2019-03-17T05:27:05.334Z,0.60
2019-03-17T05:29:54.502Z,0.72
2019-03-17T05:32:47.337Z,0.90
2019-03-17T05:35:40.392Z,0.60
2019-03-17T05:38:33.192Z,0.85
2019-03-17T05:41:34.698Z,0.70
2019-03-17T05:44:27.750Z,1.57
2019-03-17T05:47:20.550Z,0.90
2019-03-17T05:50:13.352Z,0.60
2019-03-17T05:53:06.153Z,0.70
2019-03-17T05:55:55.117Z,0.47
2019-03-17T05:58:55.679Z,0.72
2019-03-17T06:01:48.392Z,1.17
2019-03-17T06:04:41.446Z,0.78
2019-03-17T06:07:34.251Z,0.50
2019-03-17T06:10:27.051Z,0.82
2019-03-17T06:13:19.848Z,0.80
2019-03-17T06:16:13.161Z,0.98
2019-03-17T06:19:06.728Z,0.93
2019-03-17T06:22:00.639Z,0.70
2019-03-17T06:24:53.351Z,0.93
2019-03-17T06:27:46.410Z,0.60
2019-03-17T06:30:39.468Z,0.85
2019-03-17T06:33:32.264Z,0.78
2019-03-17T06:36:21.225Z,0.62
2019-03-17T06:39:14.025Z,0.80
2019-03-17T06:42:06.824Z,0.80
2019-03-17T06:44:59.623Z,0.98
2019-03-17T06:47:52.681Z,0.98
2019-03-17T06:50:45.479Z,0.80
2019-03-17T06:53:38.543Z,0.93
2019-03-17T06:56:32.358Z,1.10
2019-03-17T06:59:25.159Z,0.72
2019-03-17T07:02:18.982Z,0.80
2019-03-17T07:05:12.806Z,0.75
2019-03-17T07:08:05.868Z,0.70
2019-03-17T07:10:58.664Z,0.70
2019-03-17T07:13:51.463Z,1.12
2019-03-17T07:16:44.264Z,1.10
2019-03-17T07:19:37.062Z,0.70
2019-03-17T07:22:30.124Z,0.65
2019-03-17T07:25:19.300Z,1.00
2019-03-17T07:28:21.353Z,0.75
2019-03-17T07:31:14.410Z,0.80
2019-03-17T07:34:07.207Z,1.05
2019-03-17T07:37:00.007Z,0.60
2019-03-17T07:39:54.089Z,1.00
2019-03-17T07:42:46.631Z,1.12
2019-03-17T07:45:42.248Z,1.02
2019-03-17T07:48:35.563Z,0.90
2019-03-17T07:51:28.363Z,0.80
2019-03-17T07:54:21.417Z,0.95
2019-03-17T07:57:10.391Z,1.10
2019-03-17T08:00:04.204Z,1.15
2019-03-17T08:02:57.255Z,0.85
2019-03-17T08:05:50.058Z,1.10
2019-03-17T08:08:42.877Z,0.82
2019-03-17T08:11:30.277Z,0.90
2019-03-17T08:14:23.083Z,1.65
2019-03-17T08:17:15.881Z,1.27
2019-03-17T08:20:08.679Z,1.30
2019-03-17T08:23:01.736Z,1.12
2019-03-17T08:25:54.535Z,1.02
2019-03-17T08:28:47.590Z,1.30
2019-03-17T08:31:40.394Z,1.40
2019-03-17T08:34:33.191Z,0.90
2019-03-17T08:37:25.991Z,1.02
2019-03-17T08:40:19.047Z,1.10
2019-03-17T08:43:11.855Z,0.95
2019-03-17T08:46:04.647Z,1.02
2019-03-17T08:48:57.452Z,0.80
2019-03-17T08:51:50.505Z,1.00
2019-03-17T08:54:43.303Z,0.80
2019-03-17T08:57:36.360Z,1.10
2019-03-17T09:00:29.927Z,1.10
2019-03-17T09:03:22.728Z,1.62
2019-03-17T09:06:15.527Z,0.80
2019-03-17T09:09:08.583Z,1.12
2019-03-17T09:12:01.386Z,0.85
2019-03-17T09:14:54.198Z,1.12
2019-03-17T09:17:43.434Z,0.80
2019-03-17T09:20:37.222Z,1.05
2019-03-17T09:23:30.287Z,1.42
2019-03-17T09:26:23.078Z,1.17
2019-03-17T09:29:15.879Z,1.42
2019-03-17T09:32:08.682Z,1.25
2019-03-17T09:35:01.786Z,1.20
2019-03-17T09:37:55.303Z,1.30
2019-03-17T09:40:48.109Z,1.17
2019-03-17T09:43:40.903Z,1.00
2019-03-17T09:46:30.120Z,1.30
2019-03-17T09:49:22.918Z,0.80
2019-03-17T09:52:15.722Z,1.15
2019-03-17T09:55:08.518Z,1.10
2019-03-17T09:58:01.326Z,1.07
2019-03-17T10:00:54.376Z,1.42
2019-03-17T10:03:47.689Z,0.95
2019-03-17T10:06:40.746Z,1.10
2019-03-17T10:09:33.798Z,0.93
2019-03-17T10:12:26.602Z,1.10
2019-03-17T10:15:19.400Z,1.20
2019-03-17T10:18:04.691Z,1.07
2019-03-17T10:20:57.576Z,0.90
2019-03-17T10:23:50.374Z,0.95
2019-03-17T10:26:43.175Z,0.75
2019-03-17T10:29:35.974Z,0.88
2019-03-17T10:32:29.030Z,0.60
2019-03-17T10:35:22.092Z,0.80
2019-03-17T10:38:15.142Z,0.78
2019-03-17T10:41:07.945Z,1.22
2019-03-17T10:44:01.002Z,0.80
2019-03-17T10:46:54.310Z,0.60
2019-03-17T10:49:47.112Z,0.70
2019-03-17T10:52:39.912Z,0.70
2019-03-17T10:55:32.711Z,0.82
2019-03-17T10:58:25.514Z,0.60
2019-03-17T11:01:18.312Z,0.80
2019-03-17T11:04:11.367Z,1.05
2019-03-17T11:07:04.426Z,0.65
2019-03-17T11:09:57.223Z,0.80
2019-03-17T11:12:50.024Z,0.72
2019-03-17T11:15:43.081Z,0.90
2019-03-17T11:18:35.879Z,1.12
2019-03-17T11:21:28.682Z,1.00
2019-03-17T11:24:21.735Z,0.80
2019-03-17T11:27:14.536Z,0.88
2019-03-17T11:30:07.591Z,0.98
2019-03-17T11:33:00.650Z,0.57
2019-03-17T11:35:53.455Z,1.15
2019-03-17T11:38:46.248Z,0.62
2019-03-17T11:41:39.047Z,1.25
2019-03-17T11:44:32.113Z,1.00
2019-03-17T11:47:24.901Z,0.62
2019-03-17T11:50:17.959Z,0.70
2019-03-17T11:53:11.013Z,0.53
2019-03-17T11:56:05.099Z,0.57
2019-03-17T11:58:59.433Z,0.82
2019-03-17T12:01:52.263Z,0.60
2019-03-17T12:04:45.034Z,0.90
2019-03-17T12:07:38.094Z,0.55
2019-03-17T12:10:31.912Z,0.75
2019-03-17T12:13:24.711Z,0.68
2019-03-17T12:16:17.769Z,0.78
2019-03-17T12:19:10.567Z,0.80
2019-03-17T12:22:08.623Z,0.70
2019-03-17T12:24:53.863Z,0.70
2019-03-17T12:27:46.920Z,0.90
2019-03-17T12:30:43.302Z,0.50
2019-03-17T12:33:37.131Z,0.45
2019-03-17T12:36:26.343Z,0.40
2019-03-17T12:39:19.400Z,0.60
2019-03-17T12:42:12.205Z,0.60
2019-03-17T12:45:05.293Z,0.60
2019-03-17T12:47:58.314Z,0.62
2019-03-17T12:50:51.369Z,0.75
2019-03-17T12:53:44.173Z,0.50
2019-03-17T12:56:36.973Z,0.60
2019-03-17T12:59:31.309Z,0.70
2019-03-17T13:02:24.358Z,0.50
2019-03-17T13:05:17.672Z,0.72
2019-03-17T13:08:10.470Z,0.50
2019-03-17T13:11:03.271Z,0.60
2019-03-17T13:13:56.070Z,0.80
2019-03-17T13:16:49.133Z,0.50
2019-03-17T13:19:41.927Z,0.75
2019-03-17T13:22:34.726Z,0.47
2019-03-17T13:25:27.781Z,0.50
2019-03-17T13:28:20.586Z,0.60
2019-03-17T13:31:13.894Z,0.40
2019-03-17T13:34:04.189Z,0.40
2019-03-17T13:36:57.197Z,0.70
2019-03-17T13:39:49.991Z,0.55
2019-03-17T13:42:43.046Z,0.70
2019-03-17T13:45:36.105Z,0.50
2019-03-17T13:48:28.904Z,0.50
2019-03-17T13:51:21.961Z,0.93
2019-03-17T13:54:15.033Z,0.57
2019-03-17T13:57:08.077Z,0.70
2019-03-17T14:00:01.132Z,0.65
2019-03-17T14:02:54.191Z,0.70
2019-03-17T14:05:47.240Z,0.57
2019-03-17T14:08:36.459Z,0.50
2019-03-17T14:11:29.261Z,0.70
2019-03-17T14:14:22.060Z,0.40
2019-03-17T14:17:15.116Z,0.60
2019-03-17T14:20:09.193Z,0.60
2019-03-17T14:23:01.995Z,0.60
2019-03-17T14:25:55.049Z,0.70
2019-03-17T14:28:48.112Z,0.47
2019-03-17T14:31:41.418Z,0.65
2019-03-17T14:34:34.473Z,0.57
2019-03-17T14:37:27.527Z,0.50
2019-03-17T14:40:20.334Z,0.75
2019-03-17T14:43:13.389Z,0.70
2019-03-17T14:46:06.448Z,0.62
2019-03-17T14:48:59.494Z,0.65
2019-03-17T14:51:53.319Z,0.60
2019-03-17T14:54:46.379Z,0.70
2019-03-17T14:57:39.176Z,0.60
2019-03-17T15:00:33.510Z,1.07
2019-03-17T15:03:26.567Z,0.70
2019-03-17T15:06:19.373Z,0.80
2019-03-17T15:09:06.547Z,0.60
2019-03-17T15:11:59.341Z,0.80
2019-03-17T15:14:52.137Z,0.57
2019-03-17T15:17:44.937Z,0.80
2019-03-17T15:20:38.503Z,0.82
2019-03-17T15:23:31.304Z,0.68
2019-03-17T15:26:24.103Z,0.80
2019-03-17T15:29:17.164Z,0.75
2019-03-17T15:32:10.230Z,0.78
2019-03-17T15:35:03.018Z,0.70
2019-03-17T15:37:55.820Z,0.80
2019-03-17T15:40:48.619Z,0.72
2019-03-17T15:43:37.707Z,0.90
2019-03-17T15:46:30.886Z,0.80
2019-03-17T15:49:23.689Z,0.78
2019-03-17T15:52:16.752Z,0.70
2019-03-17T15:55:10.571Z,0.80
2019-03-17T15:58:03.375Z,0.90
2019-03-17T16:00:56.166Z,0.90
2019-03-17T16:03:48.968Z,1.17
2019-03-17T16:06:42.289Z,0.85
2019-03-17T16:09:35.591Z,1.17
2019-03-17T16:12:28.392Z,0.70
2019-03-17T16:15:22.215Z,0.78
2019-03-17T16:18:15.271Z,0.82
2019-03-17T16:21:09.081Z,0.70
2019-03-17T16:24:01.127Z,0.85
2019-03-17T16:26:53.927Z,0.72
2019-03-17T16:29:47.089Z,0.82
2019-03-17T16:32:39.784Z,0.70
2019-03-17T16:35:33.609Z,0.60
2019-03-17T16:38:26.408Z,0.53
2019-03-17T16:41:19.210Z,0.80
2019-03-17T16:44:12.007Z,0.70
2019-03-17T16:47:05.064Z,0.85
2019-03-17T16:49:58.965Z,1.42
2019-03-17T16:52:46.829Z,0.60
2019-03-17T16:55:39.624Z,1.10
2019-03-17T16:58:32.422Z,0.62
2019-03-17T17:01:25.479Z,0.72
2019-03-17T17:04:18.280Z,1.00
2019-03-17T17:07:05.449Z,1.57
2019-03-17T17:09:58.248Z,0.90
2019-03-17T17:12:51.048Z,0.60
2019-03-17T17:15:45.133Z,0.90
2019-03-17T17:18:38.182Z,1.70
2019-03-17T17:21:31.499Z,0.80
2019-03-17T17:24:24.297Z,2.30
2019-03-17T17:27:17.095Z,3.62
2019-03-17T17:30:09.894Z,1.05
2019-03-17T17:33:10.631Z,1.10
2019-03-17T17:36:03.431Z,1.77
2019-03-17T17:38:52.775Z,1.30
2019-03-17T17:41:46.731Z,1.52
2019-03-17T17:44:39.784Z,1.42
2019-03-17T17:47:32.842Z,1.15
2019-03-17T17:50:26.921Z,1.00
2019-03-17T17:53:16.076Z,1.00
2019-03-17T17:56:08.936Z,1.00
2019-03-17T17:59:01.990Z,1.25
2019-03-17T18:01:55.049Z,0.95
2019-03-17T18:04:47.847Z,1.17
2019-03-17T18:07:41.672Z,0.93
2019-03-17T18:10:34.727Z,0.90
2019-03-17T18:13:28.818Z,0.93
2019-03-17T18:16:21.872Z,1.07
2019-03-17T18:19:15.432Z,1.17
2019-03-17T18:22:04.648Z,1.00
2019-03-17T18:25:53.771Z,1.10
2019-03-17T18:28:46.829Z,0.75
2019-03-17T18:31:39.635Z,0.95
2019-03-17T18:34:32.422Z,1.07
2019-03-17T18:37:25.239Z,1.00
2019-03-17T18:40:18.023Z,1.12
2019-03-17T18:43:10.826Z,0.80
2019-03-17T18:46:03.624Z,0.93
2019-03-17T18:48:56.422Z,1.32
2019-03-17T18:51:49.490Z,1.20
2019-03-17T18:54:43.563Z,1.20
2019-03-17T18:57:37.481Z,1.00
2019-03-17T19:00:30.182Z,1.12
2019-03-17T19:03:23.239Z,1.07
2019-03-17T19:06:16.039Z,0.90
2019-03-17T19:09:09.355Z,1.20
2019-03-17T19:12:09.574Z,1.20
2019-03-17T19:15:02.376Z,1.10
2019-03-17T19:17:55.192Z,1.10
2019-03-17T19:20:47.978Z,0.82
2019-03-17T19:23:40.773Z,1.27
2019-03-17T19:26:34.086Z,1.32
2019-03-17T19:29:27.143Z,1.15
2019-03-17T19:32:20.207Z,1.17
2019-03-17T19:35:13.003Z,1.10
2019-03-17T19:38:05.799Z,1.05
2019-03-17T19:40:58.855Z,1.00
2019-03-17T19:43:52.683Z,0.98
2019-03-17T19:46:45.739Z,1.00
2019-03-17T19:49:38.534Z,1.20
2019-03-17T19:52:32.361Z,1.22
2019-03-17T19:55:25.416Z,1.25
2019-03-17T19:58:18.217Z,1.00
2019-03-17T20:01:11.021Z,1.10
2019-03-17T20:04:04.842Z,1.12
2019-03-17T20:06:58.161Z,1.42
2019-03-17T20:09:51.208Z,1.12
2019-03-17T20:12:44.007Z,1.05
2019-03-17T20:15:37.323Z,1.02
2019-03-17T20:18:30.124Z,1.42
2019-03-17T20:21:22.919Z,1.20
2019-03-17T20:24:15.974Z,1.20
2019-03-17T20:27:09.031Z,1.17
2019-03-17T20:30:02.091Z,1.10
2019-03-17T20:32:55.147Z,1.02
2019-03-17T20:35:48.202Z,0.90
2019-03-17T20:38:40.999Z,1.30
2019-03-17T20:41:33.799Z,1.30
2019-03-17T20:44:26.614Z,1.10
2019-03-17T20:47:19.403Z,1.20
2019-03-17T20:50:12.470Z,1.20
2019-03-17T20:53:05.511Z,1.00
2019-03-17T20:55:53.448Z,1.10
2019-03-17T20:58:43.435Z,1.17
2019-03-17T21:01:36.490Z,1.30
2019-03-17T21:04:29.289Z,1.30
2019-03-17T21:07:22.343Z,1.05
2019-03-17T21:10:15.144Z,0.88
2019-03-17T21:13:04.392Z,1.40
2019-03-17T21:15:57.177Z,1.10
2019-03-17T21:18:49.964Z,1.00
2019-03-17T21:21:43.017Z,1.10
2019-03-17T21:24:36.844Z,1.20
2019-03-17T21:27:29.899Z,1.00
2019-03-17T21:30:22.695Z,1.20
2019-03-17T21:33:15.496Z,0.75
2019-03-17T21:36:04.456Z,1.10
2019-03-17T21:38:57.255Z,0.90
2019-03-17T21:41:51.078Z,0.90
2019-03-17T21:44:44.924Z,1.10
2019-03-17T21:47:37.710Z,0.93
2019-03-17T21:50:31.786Z,0.90
2019-03-17T21:53:24.842Z,1.02
2019-03-17T21:56:17.643Z,1.30
2019-03-17T21:59:10.443Z,1.20
2019-03-17T22:02:12.457Z,1.02
2019-03-17T22:04:56.039Z,1.20
2019-03-17T22:07:50.936Z,1.00
2019-03-17T22:10:41.639Z,1.30
2019-03-17T22:13:37.256Z,1.20
2019-03-17T22:16:33.126Z,1.02
2019-03-17T22:19:33.611Z,0.72
2019-03-17T22:22:36.904Z,1.40
2019-03-17T22:25:37.385Z,1.10
2019-03-17T22:28:32.999Z,1.00
2019-03-17T22:31:25.806Z,1.20
2019-03-17T22:34:26.278Z,1.30
2019-03-17T22:37:15.593Z,1.37
2019-03-17T22:40:04.812Z,1.10
2019-03-17T22:43:05.191Z,0.75
2019-03-17T22:45:58.007Z,1.30
2019-03-17T22:48:50.796Z,0.98
2019-03-17T22:51:43.591Z,1.20
2019-03-17T22:54:37.415Z,1.00
2019-03-17T22:57:30.474Z,0.90
2019-03-17T23:00:19.687Z,1.17
2019-03-17T23:03:12.488Z,1.10
2019-03-17T23:06:07.334Z,1.47
2019-03-17T23:09:00.135Z,1.27
2019-03-17T23:11:53.190Z,1.30
2019-03-17T23:14:46.250Z,1.30
2019-03-17T23:17:39.315Z,1.20
2019-03-17T23:20:28.675Z,1.20
2019-03-17T23:23:21.831Z,1.52
2019-03-17T23:26:26.663Z,1.00
2019-03-17T23:29:29.702Z,2.10
2019-03-17T23:32:32.743Z,0.80
2019-03-17T23:35:43.210Z,0.70
2019-03-17T23:38:48.806Z,1.02
2019-03-17T23:41:47.954Z,0.95
2019-03-17T23:44:51.050Z,0.80
2019-03-17T23:47:54.088Z,1.50
2019-03-17T23:50:57.128Z,0.90
2019-03-17T23:54:00.167Z,1.02
2019-03-17T23:57:02.951Z,1.17
